»·PEaware :: N210EU CYYR-BGGH

N210EU :: CYYR-BGGH

FLIGHT INFORMATION

Flight Status: Arrived
Operator: Privately registered:
United States
More flights under this callsign
Pilot: Ryan C. (15122)
Aircraft: CESSNA T210 TURBO CENTURION
(T210)
More flights by this aircraft type
Origin: CYYR Goose Bay
Canada
Destination: BGGH Nuuk
Greenland
More flights between these airports :: More routes between these airports
Route: BOKTO N61W55 KU BGGH
File this flight plan on PilotEdge
Remarks: world flight
Altitude:
(Current/Filed)
9,000ft
Speed:
(Current/Filed)
160kts
Departed: 12-Nov-18 04:07 PM
Arrived: 12-Nov-18 08:41 PM
Distance/Time
Traveled:
705nm/4:34
Distance/Time
To Go:
Arrived

Flight Plot

Page will automatically refresh every two minutes.

Flight plan parsing failed; only flown route is shown


Map Options




Map Legend


Flown Route
Filed Route
Departure Airport
Arrival Airport
Navaid (VOR, NDB)
Fix

Horizontal Profiles

Position Reports

Time Latitude Longitude Heading Altitude Ground
Speed
12-Nov-18 16:00 53.324757 -60.412021 311 120ft 0kts
12-Nov-18 16:01 53.324757 -60.412021 311 120ft 0kts
12-Nov-18 16:02 53.324757 -60.412021 311 120ft 0kts
12-Nov-18 16:03 53.324407 -60.413449 226 123ft 8kts
12-Nov-18 16:04 53.322278 -60.409740 108 123ft 17kts
12-Nov-18 16:05 53.320477 -60.405104 132 121ft 12kts
12-Nov-18 16:06 53.318056 -60.403399 192 122ft 5kts
12-Nov-18 16:07 53.317662 -60.403544 195 123ft 0kts
12-Nov-18 16:08 53.317661 -60.403544 195 123ft 0kts
12-Nov-18 16:09 53.316569 -60.404796 298 128ft 9kts
12-Nov-18 16:10 53.326117 -60.420858 316 516ft 82kts
12-Nov-18 16:11 53.346475 -60.418515 35 1788ft 100kts
12-Nov-18 16:12 53.371761 -60.394951 17 2830ft 114kts
12-Nov-18 16:13 53.401627 -60.375769 13 3716ft 113kts
12-Nov-18 16:14 53.428965 -60.359303 13 4523ft 107kts
12-Nov-18 16:15 53.457733 -60.341816 13 5229ft 111kts
12-Nov-18 16:16 53.478797 -60.329001 12 5723ft 105kts
12-Nov-18 16:17 53.497350 -60.317695 18 6135ft 90kts
12-Nov-18 16:18 53.525218 -60.302405 22 6711ft 108kts
12-Nov-18 16:19 53.553134 -60.283782 20 7753ft 109kts
12-Nov-18 16:20 53.582066 -60.266021 20 8757ft 112kts
12-Nov-18 16:21 53.616132 -60.244862 21 9026ft 152kts
12-Nov-18 16:22 53.656832 -60.219752 20 9018ft 157kts
12-Nov-18 16:23 53.697883 -60.194533 20 9017ft 158kts
12-Nov-18 16:24 53.739265 -60.169054 20 9017ft 158kts
12-Nov-18 16:25 53.780427 -60.143660 20 9017ft 158kts
12-Nov-18 16:26 53.821458 -60.117900 21 9015ft 153kts
12-Nov-18 16:27 53.859988 -60.093914 20 9016ft 144kts
12-Nov-18 16:28 53.897465 -60.070647 20 9017ft 142kts
12-Nov-18 16:29 53.936324 -60.046616 19 9019ft 153kts
12-Nov-18 16:30 53.976594 -60.022114 19 9018ft 155kts
12-Nov-18 16:31 54.017028 -59.996971 20 9018ft 155kts
12-Nov-18 16:32 54.057491 -59.971679 20 9018ft 155kts
12-Nov-18 16:33 54.097969 -59.946300 20 9018ft 155kts
12-Nov-18 16:34 54.138228 -59.920998 20 9018ft 155kts
12-Nov-18 16:35 54.178617 -59.895554 20 9018ft 155kts
12-Nov-18 16:36 54.219134 -59.869968 20 9018ft 155kts
12-Nov-18 16:37 54.259546 -59.844400 20 9018ft 155kts
12-Nov-18 16:38 54.300046 -59.818736 20 9018ft 155kts
12-Nov-18 16:39 54.340422 -59.793099 20 9018ft 155kts
12-Nov-18 16:40 54.374161 -59.771636 20 9018ft 155kts
12-Nov-18 16:41 54.421387 -59.741526 20 9018ft 155kts
12-Nov-18 16:42 54.461864 -59.715662 20 9018ft 155kts
12-Nov-18 16:43 54.502190 -59.689840 20 9018ft 155kts
12-Nov-18 16:44 54.542686 -59.663853 20 9018ft 155kts
12-Nov-18 16:45 54.576321 -59.642227 20 9018ft 155kts
12-Nov-18 16:46 54.623523 -59.611813 20 9018ft 155kts
12-Nov-18 16:47 54.657224 -59.590052 20 9018ft 155kts
12-Nov-18 16:48 54.697671 -59.563883 20 9018ft 155kts
12-Nov-18 16:49 54.738050 -59.537698 20 9018ft 155kts
12-Nov-18 16:50 54.778433 -59.511449 20 9018ft 155kts
12-Nov-18 16:51 54.818813 -59.485140 20 9018ft 155kts
12-Nov-18 16:52 54.859261 -59.458724 20 9018ft 155kts
12-Nov-18 16:53 54.899711 -59.432271 20 9018ft 155kts
12-Nov-18 16:54 54.940100 -59.405804 20 9018ft 155kts
12-Nov-18 16:55 54.980445 -59.379305 20 9018ft 155kts
12-Nov-18 16:56 55.020704 -59.352809 20 9018ft 155kts
12-Nov-18 16:57 55.060908 -59.326294 20 9018ft 155kts
12-Nov-18 16:58 55.100989 -59.299799 20 9018ft 155kts
12-Nov-18 16:59 55.141445 -59.273001 20 9018ft 155kts
12-Nov-18 17:00 55.181806 -59.246205 20 9018ft 155kts
12-Nov-18 17:01 55.222203 -59.219328 20 9018ft 155kts
12-Nov-18 17:02 55.262550 -59.192428 20 9018ft 155kts
12-Nov-18 17:03 55.302826 -59.165514 20 9018ft 155kts
12-Nov-18 17:04 55.343213 -59.138469 20 9018ft 155kts
12-Nov-18 17:05 55.383522 -59.111415 20 9018ft 155kts
12-Nov-18 17:06 55.423934 -59.084233 20 9018ft 155kts
12-Nov-18 17:07 55.464209 -59.057086 20 9018ft 155kts
12-Nov-18 17:08 55.504557 -59.029828 20 9018ft 155kts
12-Nov-18 17:09 55.544857 -59.002542 20 9018ft 155kts
12-Nov-18 17:10 55.585386 -58.975039 20 9019ft 157kts
12-Nov-18 17:11 55.626397 -58.947146 20 9018ft 159kts
12-Nov-18 17:12 55.667672 -58.919012 20 9018ft 159kts
12-Nov-18 17:13 55.708906 -58.890845 20 9018ft 159kts
12-Nov-18 17:14 55.750264 -58.862526 20 9020ft 162kts
12-Nov-18 17:15 55.793196 -58.833059 20 9018ft 166kts
12-Nov-18 17:16 55.836550 -58.803233 20 9018ft 167kts
12-Nov-18 17:17 55.879849 -58.773374 20 9018ft 167kts
12-Nov-18 17:18 55.922755 -58.743716 20 9017ft 162kts
12-Nov-18 17:19 55.964495 -58.714796 20 9018ft 160kts
12-Nov-18 17:20 56.005886 -58.686052 20 9018ft 160kts
12-Nov-18 17:21 56.047239 -58.657264 20 9018ft 160kts
12-Nov-18 17:22 56.088705 -58.628335 20 9018ft 160kts
12-Nov-18 17:23 56.130183 -58.599329 20 9018ft 160kts
12-Nov-18 17:24 56.171511 -58.570360 20 9018ft 160kts
12-Nov-18 17:25 56.213056 -58.541173 20 9018ft 160kts
12-Nov-18 17:26 56.254345 -58.512097 20 9018ft 160kts
12-Nov-18 17:27 56.295879 -58.482779 20 9018ft 160kts
12-Nov-18 17:28 56.337203 -58.453541 20 9018ft 160kts
12-Nov-18 17:29 56.378624 -58.424167 20 9018ft 160kts
12-Nov-18 17:30 56.420122 -58.394669 20 9018ft 160kts
12-Nov-18 17:31 56.461442 -58.365226 20 9018ft 160kts
12-Nov-18 17:32 56.502087 -58.336201 21 9018ft 160kts
12-Nov-18 17:33 56.543495 -58.306559 21 9018ft 160kts
12-Nov-18 17:34 56.584825 -58.276906 21 9018ft 160kts
12-Nov-18 17:35 56.626202 -58.247148 21 9018ft 160kts
12-Nov-18 17:36 56.667660 -58.217259 21 9018ft 160kts
12-Nov-18 17:37 56.708962 -58.187413 21 9018ft 160kts
12-Nov-18 17:38 56.750415 -58.157392 21 9018ft 160kts
12-Nov-18 17:39 56.791754 -58.127384 21 9018ft 160kts
12-Nov-18 17:40 56.833129 -58.097278 21 9018ft 160kts
12-Nov-18 17:41 56.874342 -58.067254 21 9018ft 160kts
12-Nov-18 17:42 56.915737 -58.036993 21 9018ft 160kts
12-Nov-18 17:43 56.957090 -58.006812 21 9018ft 160kts
12-Nov-18 17:44 56.998795 -57.978599 19 9018ft 160kts
12-Nov-18 17:45 57.040779 -57.950821 19 9018ft 160kts
12-Nov-18 17:46 57.082696 -57.923156 19 9018ft 160kts
12-Nov-18 17:47 57.124486 -57.895505 19 9018ft 160kts
12-Nov-18 17:48 57.166329 -57.867753 19 9018ft 160kts
12-Nov-18 17:49 57.208293 -57.839853 19 9018ft 160kts
12-Nov-18 17:50 57.250055 -57.812019 19 9018ft 160kts
12-Nov-18 17:51 57.292066 -57.783953 19 9018ft 160kts
12-Nov-18 17:52 57.333838 -57.755977 19 9018ft 160kts
12-Nov-18 17:53 57.375776 -57.727823 19 9018ft 160kts
12-Nov-18 17:54 57.417572 -57.699695 19 9018ft 160kts
12-Nov-18 17:55 57.459502 -57.671409 19 9018ft 160kts
12-Nov-18 17:56 57.501255 -57.643173 19 9018ft 160kts
12-Nov-18 17:57 57.543192 -57.614742 19 9018ft 160kts
12-Nov-18 17:58 57.584943 -57.586371 19 9018ft 160kts
12-Nov-18 17:59 57.626807 -57.557851 19 9018ft 160kts
12-Nov-18 18:00 57.668188 -57.529591 19 9018ft 160kts
12-Nov-18 18:01 57.709829 -57.501085 19 9018ft 160kts
12-Nov-18 18:02 57.751603 -57.472416 19 9018ft 160kts
12-Nov-18 18:03 57.793494 -57.443596 19 9018ft 160kts
12-Nov-18 18:04 57.835198 -57.414835 19 9018ft 160kts
12-Nov-18 18:05 57.876990 -57.385940 19 9018ft 160kts
12-Nov-18 18:06 57.918813 -57.356951 19 9018ft 160kts
12-Nov-18 18:07 57.960572 -57.327936 20 9018ft 160kts
12-Nov-18 18:08 58.002451 -57.298763 20 9018ft 160kts
12-Nov-18 18:09 58.044220 -57.269596 20 9018ft 160kts
12-Nov-18 18:10 58.086035 -57.240323 20 9018ft 160kts
12-Nov-18 18:11 58.127762 -57.211038 20 9018ft 160kts
12-Nov-18 18:12 58.169524 -57.181657 20 9018ft 160kts
12-Nov-18 18:13 58.211189 -57.152265 20 9018ft 160kts
12-Nov-18 18:14 58.253020 -57.122683 20 9018ft 160kts
12-Nov-18 18:15 58.294726 -57.093119 20 9018ft 160kts
12-Nov-18 18:16 58.336457 -57.063453 20 9018ft 160kts
12-Nov-18 18:17 58.378174 -57.033715 20 9018ft 160kts
12-Nov-18 18:18 58.419962 -57.003847 20 9018ft 160kts
12-Nov-18 18:19 58.461687 -56.973944 20 9018ft 160kts
12-Nov-18 18:20 58.503318 -56.944051 20 9018ft 160kts
12-Nov-18 18:21 58.545103 -56.913975 20 9018ft 160kts
12-Nov-18 18:22 58.586727 -56.883939 20 9018ft 160kts
12-Nov-18 18:23 58.628432 -56.853765 20 9018ft 160kts
12-Nov-18 18:24 58.670103 -56.823286 20 9018ft 160kts
12-Nov-18 18:25 58.711745 -56.792879 20 9018ft 160kts
12-Nov-18 18:26 58.753462 -56.762417 20 9018ft 160kts
12-Nov-18 18:27 58.795167 -56.731883 20 9018ft 160kts
12-Nov-18 18:28 58.836842 -56.701319 20 9018ft 160kts
12-Nov-18 18:29 58.878480 -56.670722 20 9018ft 160kts
12-Nov-18 18:30 58.920174 -56.640010 20 9018ft 160kts
12-Nov-18 18:31 58.961719 -56.609329 20 9018ft 160kts
12-Nov-18 18:32 59.003348 -56.578503 20 9018ft 160kts
12-Nov-18 18:33 59.045092 -56.547515 20 9018ft 160kts
12-Nov-18 18:34 59.086689 -56.516550 20 9018ft 160kts
12-Nov-18 18:35 59.128319 -56.485486 20 9018ft 160kts
12-Nov-18 18:36 59.169989 -56.454307 20 9018ft 160kts
12-Nov-18 18:37 59.211530 -56.423144 20 9018ft 160kts
12-Nov-18 18:38 59.253189 -56.391810 20 9018ft 160kts
12-Nov-18 18:39 59.294771 -56.360453 20 9018ft 160kts
12-Nov-18 18:40 59.336285 -56.329062 21 9018ft 160kts
12-Nov-18 18:41 59.378002 -56.297437 21 9018ft 160kts
12-Nov-18 18:42 59.419471 -56.265915 21 9018ft 160kts
12-Nov-18 18:43 59.461046 -56.234230 21 9018ft 160kts
12-Nov-18 18:44 59.502699 -56.202374 21 9018ft 160kts
12-Nov-18 18:45 59.544271 -56.170483 21 9018ft 160kts
12-Nov-18 18:46 59.585832 -56.138546 21 9018ft 160kts
12-Nov-18 18:47 59.627341 -56.106558 21 9018ft 160kts
12-Nov-18 18:48 59.668949 -56.074417 21 9018ft 160kts
12-Nov-18 18:49 59.710352 -56.042344 21 9018ft 160kts
12-Nov-18 18:50 59.751983 -56.010001 21 9018ft 160kts
12-Nov-18 18:51 59.793526 -55.977649 21 9018ft 160kts
12-Nov-18 18:52 59.834947 -55.945322 21 9018ft 160kts
12-Nov-18 18:53 59.876571 -55.912771 21 9018ft 160kts
12-Nov-18 18:54 59.918083 -55.880196 21 9018ft 160kts
12-Nov-18 18:55 59.959490 -55.847600 21 9018ft 160kts
12-Nov-18 18:56 60.000934 -55.814887 21 9018ft 160kts
12-Nov-18 18:57 60.042435 -55.782042 21 9018ft 160kts
12-Nov-18 18:58 60.083923 -55.749125 21 9018ft 160kts
12-Nov-18 18:59 60.125363 -55.716165 21 9018ft 160kts
12-Nov-18 19:00 60.159925 -55.688613 21 9018ft 160kts
12-Nov-18 19:01 60.208371 -55.649898 21 9018ft 160kts
12-Nov-18 19:02 60.249794 -55.616704 21 9018ft 160kts
12-Nov-18 19:03 60.291143 -55.583484 21 9018ft 160kts
12-Nov-18 19:04 60.325701 -55.555655 21 9018ft 160kts
12-Nov-18 19:05 60.367219 -55.522096 21 9018ft 160kts
12-Nov-18 19:06 60.415577 -55.483296 21 9018ft 160kts
12-Nov-18 19:07 60.450012 -55.455374 21 9018ft 160kts
12-Nov-18 19:08 60.498367 -55.415998 21 9018ft 160kts
12-Nov-18 19:09 60.532822 -55.387847 21 9018ft 160kts
12-Nov-18 19:10 60.573573 -55.354438 21 9018ft 160kts
12-Nov-18 19:11 60.614882 -55.320514 22 9018ft 160kts
12-Nov-18 19:12 60.656314 -55.286374 22 9018ft 160kts
12-Nov-18 19:13 60.697757 -55.252129 22 9018ft 160kts
12-Nov-18 19:14 60.739017 -55.217940 22 9018ft 160kts
12-Nov-18 19:15 60.780423 -55.183537 22 9018ft 160kts
12-Nov-18 19:16 60.821791 -55.149075 22 9018ft 160kts
12-Nov-18 19:17 60.863072 -55.114616 22 9018ft 160kts
12-Nov-18 19:18 60.904425 -55.079994 22 9018ft 160kts
12-Nov-18 19:19 60.945715 -55.045313 22 9018ft 160kts
12-Nov-18 19:20 60.987020 -55.010671 22 9018ft 160kts
12-Nov-18 19:21 61.028282 -54.975430 23 9018ft 160kts
12-Nov-18 19:22 61.069288 -54.939170 22 9018ft 160kts
12-Nov-18 19:23 61.109554 -54.903882 22 9018ft 160kts
12-Nov-18 19:24 61.150628 -54.867865 22 9018ft 160kts
12-Nov-18 19:25 61.191824 -54.831637 22 9018ft 160kts
12-Nov-18 19:26 61.232902 -54.795410 22 9018ft 160kts
12-Nov-18 19:27 61.273993 -54.759068 22 9018ft 160kts
12-Nov-18 19:28 61.315039 -54.722661 22 9018ft 160kts
12-Nov-18 19:29 61.356024 -54.686206 22 9018ft 160kts
12-Nov-18 19:30 61.397108 -54.649556 22 9018ft 160kts
12-Nov-18 19:31 61.438144 -54.612846 22 9018ft 160kts
12-Nov-18 19:32 61.479280 -54.575939 22 9018ft 160kts
12-Nov-18 19:33 61.520277 -54.539053 22 9018ft 160kts
12-Nov-18 19:34 61.561237 -54.502090 22 9018ft 160kts
12-Nov-18 19:35 61.602232 -54.464991 22 9018ft 160kts
12-Nov-18 19:36 61.643236 -54.427775 22 9018ft 160kts
12-Nov-18 19:37 61.684197 -54.390489 22 9018ft 160kts
12-Nov-18 19:38 61.725221 -54.353040 22 9018ft 160kts
12-Nov-18 19:39 61.766185 -54.315535 23 9018ft 160kts
12-Nov-18 19:40 61.807121 -54.277946 23 9018ft 160kts
12-Nov-18 19:41 61.848152 -54.240160 23 9018ft 160kts
12-Nov-18 19:42 61.889142 -54.202301 23 9018ft 160kts
12-Nov-18 19:43 61.929981 -54.164469 23 9018ft 160kts
12-Nov-18 19:44 61.971008 -54.126354 23 9018ft 160kts
12-Nov-18 19:45 62.011890 -54.088260 23 9018ft 160kts
12-Nov-18 19:46 62.052792 -54.050033 23 9018ft 160kts
12-Nov-18 19:47 62.093684 -54.011698 23 9018ft 160kts
12-Nov-18 19:48 62.134530 -53.973286 23 9018ft 160kts
12-Nov-18 19:49 62.175348 -53.934783 23 9018ft 160kts
12-Nov-18 19:50 62.216181 -53.896148 23 9018ft 160kts
12-Nov-18 19:51 62.257091 -53.857330 23 9018ft 160kts
12-Nov-18 19:52 62.297967 -53.818446 23 9018ft 160kts
12-Nov-18 19:53 62.338818 -53.779466 23 9018ft 160kts
12-Nov-18 19:54 62.379659 -53.740380 23 9018ft 160kts
12-Nov-18 19:55 62.420418 -53.701256 23 9018ft 160kts
12-Nov-18 19:56 62.461227 -53.661967 23 9018ft 160kts
12-Nov-18 19:57 62.502018 -53.622576 23 9018ft 160kts
12-Nov-18 19:58 62.542754 -53.583122 23 9018ft 160kts
12-Nov-18 19:59 62.583591 -53.543446 23 9018ft 160kts
12-Nov-18 20:00 62.624420 -53.503663 23 9018ft 160kts
12-Nov-18 20:01 62.665084 -53.463916 23 9018ft 160kts
12-Nov-18 20:02 62.705821 -53.423979 23 9018ft 161kts
12-Nov-18 20:03 62.746542 -53.383936 23 9018ft 161kts
12-Nov-18 20:04 62.787000 -53.344031 24 9018ft 161kts
12-Nov-18 20:05 62.827708 -53.303758 24 9018ft 161kts
12-Nov-18 20:06 62.868452 -53.263323 24 9018ft 161kts
12-Nov-18 20:07 62.909187 -53.222777 24 9018ft 161kts
12-Nov-18 20:08 62.949773 -53.182255 24 9018ft 161kts
12-Nov-18 20:09 62.990454 -53.141511 24 9018ft 161kts
12-Nov-18 20:10 63.031147 -53.100629 24 9018ft 161kts
12-Nov-18 20:11 63.071789 -53.059675 24 9018ft 161kts
12-Nov-18 20:12 63.112231 -53.018792 24 9018ft 161kts
12-Nov-18 20:13 63.152992 -52.977464 24 9018ft 161kts
12-Nov-18 20:14 63.193477 -52.936286 24 9018ft 161kts
12-Nov-18 20:15 63.234082 -52.894859 24 9018ft 161kts
12-Nov-18 20:16 63.274684 -52.853307 24 9018ft 161kts
12-Nov-18 20:17 63.315393 -52.811513 24 9018ft 161kts
12-Nov-18 20:18 63.355903 -52.769794 24 9018ft 161kts
12-Nov-18 20:19 63.396445 -52.727911 24 9018ft 161kts
12-Nov-18 20:20 63.436962 -52.685923 24 9018ft 161kts
12-Nov-18 20:21 63.477518 -52.643763 24 9018ft 161kts
12-Nov-18 20:22 63.518077 -52.601467 24 9018ft 161kts
12-Nov-18 20:23 63.558651 -52.559021 24 9018ft 161kts
12-Nov-18 20:24 63.599116 -52.516558 24 9018ft 161kts
12-Nov-18 20:25 63.639299 -52.474252 24 9247ft 145kts
12-Nov-18 20:26 63.677061 -52.434463 24 9414ft 158kts
12-Nov-18 20:27 63.719913 -52.388862 24 8760ft 177kts
12-Nov-18 20:28 63.764396 -52.341422 25 8056ft 170kts
12-Nov-18 20:29 63.805084 -52.298457 25 7344ft 157kts
12-Nov-18 20:30 63.844238 -52.256602 25 6640ft 154kts
12-Nov-18 20:31 63.882849 -52.215167 25 5940ft 153kts
12-Nov-18 20:32 63.921147 -52.173942 25 5259ft 151kts
12-Nov-18 20:33 63.958040 -52.134152 25 4752ft 144kts
12-Nov-18 20:34 63.993913 -52.095319 25 4250ft 142kts
12-Nov-18 20:35 64.029450 -52.056772 25 3748ft 141kts
12-Nov-18 20:36 64.064240 -52.019061 25 3406ft 129kts
12-Nov-18 20:37 64.086748 -51.968871 55 3312ft 119kts
12-Nov-18 20:38 64.105126 -51.903644 60 2698ft 122kts
12-Nov-18 20:39 64.118756 -51.842646 66 2206ft 122kts
12-Nov-18 20:40 64.130393 -51.774643 70 1898ft 100kts
12-Nov-18 20:41 64.143020 -51.719778 39 1413ft 92kts
12-Nov-18 20:42 64.165326 -51.698934 17 901ft 79kts
12-Nov-18 20:43 64.186076 -51.682878 18 318ft 77kts
12-Nov-18 20:44 64.195881 -51.675368 196 235ft 14kts
12-Nov-18 20:45 64.190540 -51.677584 105 236ft 15kts
12-Nov-18 20:46 64.190235 -51.674966 286 263ft 0kts
12-Nov-18 20:47 64.190235 -51.674966 286 263ft 0kts
12-Nov-18 20:48 64.190235 -51.674966 286 263ft 0kts
12-Nov-18 20:49 64.190235 -51.674966 286 263ft 0kts
12-Nov-18 20:50 64.190235 -51.674966 286 263ft 0kts
12-Nov-18 20:51 64.190235 -51.674966 286 263ft 0kts
12-Nov-18 20:52 64.190235 -51.674966 286 263ft 0kts
12-Nov-18 20:53 64.190235 -51.674966 286 263ft 0kts
12-Nov-18 20:54 64.190235 -51.674966 286 263ft 0kts
12-Nov-18 20:55 64.190235 -51.674966 286 263ft 0kts
12-Nov-18 20:56 64.190235 -51.674966 286 263ft 0kts
12-Nov-18 20:57 64.190235 -51.674966 286 263ft 0kts
12-Nov-18 20:58 64.190235 -51.674966 286 263ft 0kts

Navigation Log

Ident Type
Flight plan parsing failed, navigation log unavailable